Ana Sayfa
METAR-TAF:

METAR-TAF

Havaalanları :

Billy Mitchell Airport

Hatteras, Kuzey Carolina, Amerika Birleşik Devletleri

Enlem: 35-13-56N, Boylam: 075-37-21W, yükseklik: 5 m

Güncel hava durumu gözlemi

Rapor saat 20:51 UTC de 1 saat ve 3 dakika önce yapıldı.
Rüzgar kuzeydoğudan 17 kt ve 34 kt'a kadar ani rüzgarlar
Sıcaklık 14°C
Nem 94%
Basınç 1013 hPa
Görüş mesafesi: 9.7 km
1600 ft yükseklikte çok bulutlu
Pus

METAR: KHSE 162051Z AUTO 04017G34KT 6SM BR OVC016 14/13 A2990 RMK AO2 PK WND 02034/2045 RAE1955B06E22 SLP125 P0000 60007 T01440128 55004

Saat: 16:54 (21:54 UTC)


TAF: eksik

4.000'den fazla havaalanı için hava durumu gözlemleri ve tahminleri (METAR ve TAF raporları).

Kullanılabilir istasyonlar harita üzerinde sarı ve kırmızı noktalarla gösterilir.

İstasyonun adını görmek için fareyi noktanın üzerinde gezdirin.

Sonrasında hava gözlem ve tahminlerini görmek için tıklayın.

Haritayı değiştirmek için: yaklaştırmak için siyah artı işaretli yeşil düğmeye ve uzaklaştırmak için de eksi işaretli düğmeye hızla tıklayın; bitişik haritalar için yeşil okları kullanın.


METAR-TAF: